Time;durP1;ratioP1;P1;durP2;ratioP2;P2;SDS_P1;SDS_P2;PMS_P1;PMS_P2;Temp;Humidity;BMP_temperature;BMP_pressure;BME280_temperature;BME280_humidity;BME280_pressure;Samples;Min_cycle;Max_cycle;Signal;HPM_P1;HPM_P2
2023/02/12 00:00:32;;;;;;;4.65;4.25;;;3.60;94.40;;;;;;5016628;28;20327;-74
2023/02/12 00:03:00;;;;;;;4.18;3.88;;;3.60;94.00;;;;;;5017848;28;20768;-74
2023/02/12 00:05:27;;;;;;;5.65;5.25;;;3.60;94.30;;;;;;5019730;28;20215;-74
2023/02/12 00:07:55;;;;;;;6.15;5.65;;;3.70;93.60;;;;;;5021350;28;20291;-73
2023/02/12 00:10:22;;;;;;;5.30;4.82;;;3.80;93.60;;;;;;5015925;28;20216;-75
2023/02/12 00:12:50;;;;;;;5.22;4.85;;;3.80;93.80;;;;;;5017663;28;20294;-75
2023/02/12 00:15:17;;;;;;;5.22;4.82;;;3.90;94.00;;;;;;5017009;28;20310;-74
2023/02/12 00:17:44;;;;;;;5.28;4.80;;;3.90;93.90;;;;;;5017376;28;20737;-74
2023/02/12 00:20:11;;;;;;;4.45;4.15;;;3.90;93.80;;;;;;5017267;28;20299;-74
2023/02/12 00:22:39;;;;;;;4.90;4.50;;;3.90;94.30;;;;;;5021888;28;20203;-74
2023/02/12 00:25:08;;;;;;;4.82;4.53;;;3.80;94.80;;;;;;5019437;28;20321;-74
2023/02/12 00:27:36;;;;;;;4.60;4.30;;;3.80;95.20;;;;;;5022095;28;20286;-73
2023/02/12 00:30:03;;;;;;;4.25;3.95;;;3.70;95.20;;;;;;5026788;28;20306;-74
2023/02/12 00:32:30;;;;;;;4.72;4.32;;;3.60;95.10;;;;;;5030866;28;20713;-73
2023/02/12 00:34:57;;;;;;;5.72;5.22;;;3.60;94.80;;;;;;5029290;28;20705;-74
2023/02/12 00:37:24;;;;;;;5.43;4.93;;;3.70;94.60;;;;;;5026629;28;20287;-73
2023/02/12 00:39:51;;;;;;;4.75;4.45;;;3.70;94.70;;;;;;5027000;28;20251;-74
2023/02/12 00:42:20;;;;;;;5.05;4.75;;;3.80;94.60;;;;;;5026636;28;20280;-74
2023/02/12 00:44:47;;;;;;;6.53;6.03;;;3.80;94.60;;;;;;5029193;28;20234;-75
2023/02/12 00:47:15;;;;;;;5.75;5.35;;;3.80;94.90;;;;;;5035398;28;20278;-74
2023/02/12 00:49:42;;;;;;;5.95;5.55;;;3.80;95.00;;;;;;5032011;28;20770;-73
2023/02/12 00:52:10;;;;;;;4.88;4.53;;;3.80;95.10;;;;;;5031981;28;20307;-74
2023/02/12 00:54:37;;;;;;;5.38;4.97;;;3.90;94.70;;;;;;5025022;28;20306;-74
2023/02/12 00:57:04;;;;;;;5.15;4.75;;;3.90;94.60;;;;;;5027504;28;20247;-74
2023/02/12 00:59:34;;;;;;;4.95;4.63;;;3.90;94.70;;;;;;5032567;28;20312;-74
2023/02/12 01:02:01;;;;;;;5.30;4.90;;;3.90;95.20;;;;;;5023627;28;20677;-74
2023/02/12 01:04:29;;;;;;;4.80;4.40;;;3.80;96.10;;;;;;5026592;28;20273;-74
2023/02/12 01:06:56;;;;;;;5.13;4.72;;;3.80;95.70;;;;;;5025606;28;20307;-74
2023/02/12 01:09:23;;;;;;;5.05;4.53;;;3.70;95.60;;;;;;5023151;28;20318;-74
2023/02/12 01:11:50;;;;;;;4.50;4.18;;;3.60;95.60;;;;;;5025533;28;20334;-74
2023/02/12 01:14:17;;;;;;;4.45;4.15;;;3.50;95.80;;;;;;5030346;28;20258;-74
2023/02/12 01:16:46;;;;;;;4.45;4.15;;;3.50;96.30;;;;;;5027179;28;20660;-74
2023/02/12 01:19:13;;;;;;;4.40;4.10;;;3.50;96.50;;;;;;5027012;28;20339;-74
2023/02/12 01:21:40;;;;;;;4.38;4.07;;;3.60;96.60;;;;;;5028716;28;20227;-74
2023/02/12 01:24:07;;;;;;;4.40;4.10;;;3.60;96.30;;;;;;5026176;28;20304;-74
2023/02/12 01:26:34;;;;;;;3.40;3.20;;;3.70;96.30;;;;;;5027421;28;20292;-74
2023/02/12 01:29:05;;;;;;;4.50;4.20;;;3.80;96.30;;;;;;5021228;28;20306;-74
2023/02/12 01:31:36;;;;;;;3.95;3.75;;;3.80;96.30;;;;;;5026538;28;20302;-73
2023/02/12 01:34:07;;;;;;;3.85;3.65;;;3.80;96.30;;;;;;5028627;28;20309;-74
2023/02/12 01:36:34;;;;;;;4.50;4.20;;;3.90;96.30;;;;;;5030229;28;20282;-74
2023/02/12 01:39:02;;;;;;;3.70;3.50;;;3.90;96.40;;;;;;5029070;28;20311;-74
2023/02/12 01:41:32;;;;;;;4.25;3.92;;;4.00;96.30;;;;;;5030121;28;20192;-74
2023/02/12 01:44:14;;;;;;;4.20;3.90;;;4.00;95.80;;;;;;5022985;28;20307;-74
2023/02/12 01:46:42;;;;;;;4.50;4.20;;;4.00;95.60;;;;;;5020205;28;20198;-74
2023/02/12 01:49:16;;;;;;;4.28;3.97;;;4.10;95.70;;;;;;5023036;28;20262;-73
2023/02/12 01:51:45;;;;;;;4.10;3.90;;;4.10;95.40;;;;;;5028494;28;20600;-74
2023/02/12 01:54:15;;;;;;;3.92;3.63;;;4.20;95.70;;;;;;5025941;28;20307;-73
2023/02/12 01:56:43;;;;;;;4.18;3.88;;;4.20;95.80;;;;;;5028012;28;20635;-74
2023/02/12 01:59:11;;;;;;;3.90;3.70;;;4.30;95.70;;;;;;5028902;28;20306;-74
2023/02/12 02:01:38;;;;;;;4.30;4.00;;;4.30;95.70;;;;;;5024049;28;20274;-74
2023/02/12 02:04:15;;;;;;;4.53;4.22;;;4.20;95.50;;;;;;5025892;28;20226;-73
2023/02/12 02:06:48;;;;;;;4.38;4.05;;;4.10;95.50;;;;;;5027534;28;20237;-73
2023/02/12 02:09:17;;;;;;;4.80;4.45;;;4.10;96.20;;;;;;5024077;28;20298;-74
2023/02/12 02:14:35;;;;;;;5.20;4.80;;;3.80;96.30;;;;;;5023911;28;20278;-73
2023/02/12 02:17:16;;;;;;;5.50;5.10;;;3.60;96.20;;;;;;5029343;28;20704;-73
2023/02/12 02:20:21;;;;;;;5.28;4.88;;;3.50;96.60;;;;;;5024819;28;20242;-73
2023/02/12 02:22:53;;;;;;;5.10;4.70;;;3.40;96.90;;;;;;5026708;28;20219;-73
2023/02/12 02:25:43;;;;;;;5.20;4.80;;;3.40;97.20;;;;;;5025026;28;20309;-74
2023/02/12 02:28:33;;;;;;;7.13;4.80;;;3.40;97.40;;;;;;5026647;28;20299;-74
2023/02/12 02:31:07;;;;;;;5.38;4.88;;;3.50;97.30;;;;;;5027201;28;20306;-74
2023/02/12 02:33:40;;;;;;;4.85;4.53;;;3.50;97.20;;;;;;5032239;28;20254;-74
2023/02/12 02:36:19;;;;;;;4.90;4.50;;;3.50;97.10;;;;;;5025354;28;20756;-73
2023/02/12 02:38:51;;;;;;;4.93;4.60;;;3.60;97.10;;;;;;5028923;28;20336;-74
2023/02/12 02:41:21;;;;;;;5.45;5.03;;;3.60;96.80;;;;;;5030669;28;20239;-74
2023/02/12 02:43:51;;;;;;;4.40;4.10;;;3.70;96.60;;;;;;5025184;28;20215;-73
2023/02/12 02:46:29;;;;;;;5.18;4.78;;;3.70;96.70;;;;;;5029121;28;20247;-74
2023/02/12 02:49:01;;;;;;;5.35;4.85;;;3.70;96.90;;;;;;5024991;28;20295;-74
2023/02/12 02:51:33;;;;;;;5.35;4.95;;;3.70;97.50;;;;;;5026741;28;20319;-73
2023/02/12 02:54:06;;;;;;;4.55;4.25;;;3.70;97.40;;;;;;5024319;28;20325;-73
2023/02/12 02:56:37;;;;;;;4.30;4.00;;;3.70;97.40;;;;;;5028430;28;20303;-73
2023/02/12 02:59:07;;;;;;;4.35;4.05;;;3.80;97.50;;;;;;5030854;28;20302;-73
2023/02/12 03:01:42;;;;;;;4.43;4.13;;;3.80;97.70;;;;;;5024447;28;20611;-74
2023/02/12 03:04:15;;;;;;;4.05;3.75;;;3.90;97.70;;;;;;5033224;28;20641;-74
2023/02/12 03:06:48;;;;;;;3.90;3.70;;;4.00;97.70;;;;;;5024827;28;20703;-74
2023/02/12 03:09:19;;;;;;;3.90;3.70;;;4.00;98.20;;;;;;5022310;28;20342;-74
2023/02/12 03:11:47;;;;;;;3.65;3.45;;;4.00;98.30;;;;;;5029564;28;20302;-74
2023/02/12 03:14:20;;;;;;;3.35;3.15;;;4.00;98.70;;;;;;5025604;28;20305;-73
2023/02/12 03:16:54;;;;;;;4.10;3.90;;;4.10;98.50;;;;;;5032014;28;20238;-73
2023/02/12 03:19:25;;;;;;;4.00;3.72;;;4.10;98.10;;;;;;5025660;28;20664;-74
2023/02/12 03:21:57;;;;;;;3.58;3.38;;;4.20;98.30;;;;;;5028649;28;20300;-73
2023/02/12 03:24:29;;;;;;;3.38;3.15;;;4.30;98.30;;;;;;5025377;28;20310;-73
2023/02/12 03:27:02;;;;;;;3.30;3.10;;;4.30;98.40;;;;;;5026121;28;20195;-74
2023/02/12 03:29:29;;;;;;;3.45;3.25;;;4.40;98.20;;;;;;5028482;28;20244;-74
2023/02/12 03:32:10;;;;;;;3.75;3.55;;;4.40;98.30;;;;;;5029671;28;20299;-73
2023/02/12 03:34:47;;;;;;;3.80;3.50;;;4.50;98.60;;;;;;5032723;28;20294;-74
2023/02/12 03:37:19;;;;;;;3.50;3.30;;;4.60;98.00;;;;;;5023698;28;20278;-74
2023/02/12 03:39:53;;;;;;;3.50;3.30;;;4.70;98.20;;;;;;5030061;28;20734;-74
2023/02/12 03:42:29;;;;;;;2.90;2.80;;;4.70;98.80;;;;;;5025728;28;20242;-73
2023/02/12 03:44:59;;;;;;;4.07;3.83;;;4.70;98.60;;;;;;5024147;28;20307;-74
2023/02/12 03:47:39;;;;;;;4.50;4.20;;;4.60;98.40;;;;;;5024558;28;20287;-74
2023/02/12 03:50:11;;;;;;;4.53;4.22;;;4.40;98.10;;;;;;5021800;28;20309;-74
2023/02/12 03:52:38;;;;;;;4.35;3.95;;;4.20;98.90;;;;;;5029665;28;20303;-73
2023/02/12 03:55:07;;;;;;;4.10;3.80;;;4.10;99.20;;;;;;5025994;28;20313;-74
2023/02/12 03:57:39;;;;;;;3.60;3.30;;;4.10;99.40;;;;;;5028907;28;20234;-74
2023/02/12 04:00:11;;;;;;;4.05;3.75;;;4.00;99.30;;;;;;5021249;28;20299;-74
2023/02/12 04:02:40;;;;;;;3.60;3.40;;;4.00;99.50;;;;;;5027114;28;20238;-73
2023/02/12 04:05:15;;;;;;;4.60;4.20;;;4.00;99.90;;;;;;5026264;28;20230;-73
2023/02/12 04:07:43;;;;;;;4.80;4.50;;;3.90;99.60;;;;;;5022302;28;20997;-73
2023/02/12 04:10:11;;;;;;;4.78;4.38;;;3.80;99.20;;;;;;5021840;28;20243;-73
2023/02/12 04:12:43;;;;;;;4.70;4.30;;;3.70;99.40;;;;;;5024177;28;20664;-74
2023/02/12 04:15:31;;;;;;;3.85;3.55;;;3.70;99.90;;;;;;5024445;28;20310;-74
2023/02/12 04:18:10;;;;;;;4.60;4.20;;;3.70;99.90;;;;;;5025191;28;20206;-73
2023/02/12 04:20:47;;;;;;;4.80;4.43;;;3.70;99.90;;;;;;5024232;28;20306;-74
2023/02/12 04:23:25;;;;;;;4.93;4.53;;;3.80;99.90;;;;;;5022508;28;20225;-75
2023/02/12 04:26:00;;;;;;;4.25;3.85;;;3.90;99.90;;;;;;5022848;28;20772;-73
2023/02/12 04:28:42;;;;;;;4.72;4.40;;;3.90;99.90;;;;;;5023633;28;20691;-74
2023/02/12 04:31:17;;;;;;;4.57;4.25;;;3.90;99.90;;;;;;5023132;28;20193;-74
2023/02/12 04:33:52;;;;;;;3.72;3.53;;;3.80;99.90;;;;;;5025273;28;20246;-74
2023/02/12 04:36:25;;;;;;;4.32;3.92;;;3.80;99.90;;;;;;5010338;28;20215;-74
2023/02/12 04:38:57;;;;;;;4.22;3.90;;;3.70;99.90;;;;;;5029631;28;20311;-74
2023/02/12 04:41:26;;;;;;;4.13;3.83;;;3.80;99.90;;;;;;5032135;28;20648;-74
2023/02/12 04:43:53;;;;;;;3.85;3.55;;;3.80;99.90;;;;;;5028646;28;20386;-73
2023/02/12 04:46:20;;;;;;;4.45;4.15;;;3.80;99.90;;;;;;5031562;28;20242;-74
2023/02/12 04:48:53;;;;;;;3.80;3.60;;;3.80;99.90;;;;;;5025377;28;20303;-73
2023/02/12 04:51:20;;;;;;;3.92;3.67;;;3.80;99.90;;;;;;5028375;28;20314;-74
2023/02/12 04:53:48;;;;;;;3.60;3.40;;;3.80;99.90;;;;;;5023672;28;20681;-74
2023/02/12 04:56:15;;;;;;;4.07;3.78;;;3.80;99.90;;;;;;5028402;28;20369;-74
2023/02/12 04:58:43;;;;;;;3.83;3.53;;;3.80;99.90;;;;;;5028731;28;20229;-74
2023/02/12 05:01:10;;;;;;;4.22;3.92;;;3.80;99.90;;;;;;5025006;28;20286;-74
2023/02/12 05:03:38;;;;;;;4.40;4.10;;;3.80;99.90;;;;;;5024020;28;20267;-73
2023/02/12 05:06:09;;;;;;;3.40;3.20;;;3.80;99.90;;;;;;5027140;28;20330;-73
2023/02/12 05:08:36;;;;;;;4.25;4.00;;;3.70;99.90;;;;;;5032862;28;20215;-74
2023/02/12 05:11:07;;;;;;;4.00;3.70;;;3.70;99.90;;;;;;5026432;28;20222;-74
2023/02/12 05:13:34;;;;;;;3.60;3.35;;;3.70;99.90;;;;;;5030220;28;20314;-75
2023/02/12 05:16:04;;;;;;;4.20;3.90;;;3.60;99.90;;;;;;5031347;28;20330;-74
2023/02/12 05:18:32;;;;;;;3.67;3.47;;;3.60;99.90;;;;;;5031017;28;20306;-73
2023/02/12 05:21:00;;;;;;;3.90;3.70;;;3.60;99.90;;;;;;5024925;28;20283;-73
2023/02/12 05:23:30;;;;;;;3.80;3.60;;;3.50;99.90;;;;;;5030266;28;20662;-74
2023/02/12 05:25:59;;;;;;;3.67;3.47;;;3.50;99.90;;;;;;5031760;28;20776;-73
2023/02/12 05:28:27;;;;;;;4.07;3.80;;;3.60;99.90;;;;;;5032189;28;20746;-73
2023/02/12 05:30:54;;;;;;;3.63;3.42;;;3.60;99.90;;;;;;5028101;28;20298;-74
2023/02/12 05:33:21;;;;;;;4.55;4.25;;;3.50;99.90;;;;;;5030620;28;20319;-73
2023/02/12 05:35:48;;;;;;;3.95;3.65;;;3.40;99.90;;;;;;5028663;28;20298;-73
2023/02/12 05:38:15;;;;;;;4.32;3.92;;;3.40;99.90;;;;;;5029769;28;20203;-75
2023/02/12 05:40:44;;;;;;;3.75;3.55;;;3.30;99.90;;;;;;5036346;28;20202;-74
2023/02/12 05:43:11;;;;;;;3.80;3.60;;;3.30;99.90;;;;;;5033594;28;20231;-74
2023/02/12 05:45:40;;;;;;;3.47;3.28;;;3.30;99.90;;;;;;5028826;28;20351;-75
2023/02/12 05:48:07;;;;;;;2.90;2.80;;;3.40;99.90;;;;;;5028814;28;20203;-76
2023/02/12 05:50:34;;;;;;;3.10;2.90;;;3.40;99.90;;;;;;5027454;28;20287;-74
2023/02/12 05:53:01;;;;;;;3.45;3.25;;;3.50;99.90;;;;;;5027379;28;20299;-74
2023/02/12 05:55:29;;;;;;;3.33;3.13;;;3.50;99.90;;;;;;5027173;28;20327;-73
2023/02/12 05:57:57;;;;;;;3.60;3.40;;;3.50;99.90;;;;;;5029243;28;20228;-74
2023/02/12 06:00:24;;;;;;;3.30;3.10;;;3.60;99.90;;;;;;5029089;28;20698;-74
2023/02/12 06:02:51;;;;;;;3.58;3.38;;;3.60;99.90;;;;;;5028454;28;20286;-74
2023/02/12 06:05:18;;;;;;;3.80;3.60;;;3.60;99.90;;;;;;5025463;28;20315;-74
2023/02/12 06:07:45;;;;;;;4.35;3.33;;;3.70;99.90;;;;;;5026937;28;20294;-74
2023/02/12 06:10:12;;;;;;;3.58;3.38;;;3.80;99.90;;;;;;5028245;28;20305;-73
2023/02/12 06:12:39;;;;;;;3.33;3.13;;;3.80;99.90;;;;;;5029573;28;20306;-73
2023/02/12 06:15:08;;;;;;;3.20;3.00;;;3.80;99.90;;;;;;5027406;28;20293;-74
2023/02/12 06:17:35;;;;;;;3.03;2.92;;;3.70;99.90;;;;;;5029403;28;20449;-73
2023/02/12 06:20:02;;;;;;;3.35;3.15;;;3.80;99.90;;;;;;5028009;28;20294;-73
2023/02/12 06:22:29;;;;;;;3.60;3.33;;;3.80;99.90;;;;;;5028765;28;20259;-73
2023/02/12 06:24:56;;;;;;;3.30;3.20;;;3.70;99.90;;;;;;5035603;28;20311;-74
2023/02/12 06:27:23;;;;;;;3.42;3.22;;;3.80;99.90;;;;;;5035435;28;20712;-73
2023/02/12 06:29:53;;;;;;;3.75;3.55;;;3.80;99.90;;;;;;5036008;28;20303;-74
2023/02/12 06:32:22;;;;;;;5.35;5.03;;;3.80;99.90;;;;;;5030661;28;20215;-74
2023/02/12 06:34:49;;;;;;;4.03;3.83;;;3.70;99.90;;;;;;5035329;28;20297;-73
2023/02/12 06:37:16;;;;;;;3.92;3.72;;;3.70;99.90;;;;;;5030631;28;20399;-73
2023/02/12 06:39:43;;;;;;;4.80;4.40;;;3.70;99.90;;;;;;5032592;28;20298;-73
2023/02/12 06:42:10;;;;;;;4.30;4.00;;;3.60;99.90;;;;;;5025836;28;20224;-73
2023/02/12 06:44:37;;;;;;;4.30;4.00;;;3.60;99.90;;;;;;5029908;28;20254;-74
2023/02/12 06:47:04;;;;;;;3.47;3.28;;;3.60;99.90;;;;;;5030525;28;20279;-74
2023/02/12 06:49:33;;;;;;;3.45;3.25;;;3.60;99.90;;;;;;5031340;28;20300;-74
2023/02/12 06:52:00;;;;;;;4.17;3.87;;;3.60;99.90;;;;;;5027609;28;20287;-74
2023/02/12 06:54:27;;;;;;;3.58;3.38;;;3.70;99.90;;;;;;5029880;28;20310;-74
2023/02/12 06:56:54;;;;;;;3.97;3.78;;;3.80;99.90;;;;;;5036311;28;20634;-74
2023/02/12 06:59:21;;;;;;;3.53;3.33;;;3.90;99.90;;;;;;5030808;28;20327;-73
2023/02/12 07:01:48;;;;;;;3.50;3.30;;;4.00;99.90;;;;;;5025186;28;20278;-74
2023/02/12 07:04:15;;;;;;;2.92;2.78;;;4.10;99.90;;;;;;5029757;28;20661;-74
2023/02/12 07:06:43;;;;;;;4.53;3.25;;;4.10;99.90;;;;;;5029984;28;20299;-73
2023/02/12 07:09:10;;;;;;;4.85;4.45;;;4.20;99.90;;;;;;5028977;28;20294;-73
2023/02/12 07:11:38;;;;;;;4.32;4.03;;;4.30;99.90;;;;;;5025939;28;20283;-73
2023/02/12 07:14:05;;;;;;;3.80;3.50;;;4.20;99.90;;;;;;5028866;28;20230;-74
2023/02/12 07:16:32;;;;;;;4.70;4.40;;;4.20;99.90;;;;;;5034141;28;20310;-74
2023/02/12 07:18:59;;;;;;;5.47;5.07;;;4.20;99.90;;;;;;5034568;28;20298;-74
2023/02/12 07:21:26;;;;;;;5.75;5.35;;;4.20;99.90;;;;;;5032421;28;20662;-74
2023/02/12 07:23:55;;;;;;;8.75;6.85;;;4.10;99.90;;;;;;5033930;28;20247;-75
2023/02/12 07:26:22;;;;;;;11.05;6.82;;;4.20;99.90;;;;;;5035209;28;20654;-73
2023/02/12 07:28:49;;;;;;;6.70;6.03;;;4.30;99.90;;;;;;5026404;28;20247;-74
2023/02/12 07:31:18;;;;;;;5.60;5.03;;;4.30;99.90;;;;;;5028600;28;20623;-74
2023/02/12 07:33:46;;;;;;;8.55;5.80;;;4.30;99.90;;;;;;5036078;28;20301;-74
2023/02/12 07:36:15;;;;;;;5.32;4.85;;;4.90;99.90;;;;;;5035056;28;20247;-74
2023/02/12 07:38:42;;;;;;;4.82;4.43;;;5.70;99.90;;;;;;5037351;28;20254;-75
2023/02/12 07:41:13;;;;;;;4.88;4.47;;;6.40;99.90;;;;;;5029507;28;20286;-74
2023/02/12 07:43:40;;;;;;;5.13;4.60;;;7.00;99.90;;;;;;5031850;28;20302;-75
2023/02/12 07:46:12;;;;;;;4.88;4.47;;;7.60;99.90;;;;;;5035329;28;21035;-76
2023/02/12 07:48:39;;;;;;;4.25;3.95;;;8.20;99.90;;;;;;5021966;28;20303;-75
2023/02/12 07:51:09;;;;;;;4.82;4.45;;;8.70;99.90;;;;;;5025886;28;20211;-75
2023/02/12 07:53:36;;;;;;;4.72;4.32;;;9.10;99.90;;;;;;5033651;28;20751;-75
2023/02/12 07:56:22;;;;;;;6.35;4.57;;;9.40;99.90;;;;;;5036665;28;20246;-76
2023/02/12 07:58:51;;;;;;;5.68;4.75;;;9.80;99.90;;;;;;5031189;28;20294;-74
2023/02/12 08:01:20;;;;;;;5.03;4.63;;;10.20;99.90;;;;;;5031325;28;20241;-76
2023/02/12 08:03:48;;;;;;;5.53;5.03;;;10.80;99.90;;;;;;5028846;28;20298;-75
2023/02/12 08:06:17;;;;;;;5.03;4.72;;;11.30;99.00;;;;;;5026039;28;20676;-74
2023/02/12 08:08:43;;;;;;;5.90;5.18;;;11.50;98.10;;;;;;5030580;28;20303;-75
2023/02/12 08:11:16;;;;;;;5.43;4.93;;;11.90;97.70;;;;;;5026717;28;20752;-75
2023/02/12 08:13:44;;;;;;;5.03;4.63;;;11.80;96.20;;;;;;5031764;28;20247;-75
2023/02/12 08:16:14;;;;;;;5.60;4.68;;;11.60;96.80;;;;;;5031515;28;20306;-75
2023/02/12 08:18:41;;;;;;;5.22;4.75;;;11.70;96.90;;;;;;5032756;28;20297;-75
2023/02/12 08:21:09;;;;;;;5.07;4.68;;;11.90;96.60;;;;;;5034865;28;20286;-75
2023/02/12 08:23:37;;;;;;;5.10;4.60;;;12.10;96.00;;;;;;5028002;28;20233;-75
2023/02/12 08:26:10;;;;;;;5.32;4.82;;;11.80;95.60;;;;;;5026304;28;20302;-75
2023/02/12 08:28:40;;;;;;;4.82;4.28;;;11.90;95.80;;;;;;5034708;28;20242;-75
2023/02/12 08:31:09;;;;;;;4.60;4.20;;;12.30;95.80;;;;;;5030817;28;20833;-76
2023/02/12 08:33:36;;;;;;;4.78;4.38;;;12.70;95.60;;;;;;5030436;28;20223;-75
2023/02/12 08:36:05;;;;;;;4.43;3.90;;;13.20;95.10;;;;;;5034592;28;20254;-75
2023/02/12 08:38:33;;;;;;;4.65;4.25;;;13.50;94.40;;;;;;5010878;28;20224;-73
2023/02/12 08:41:05;;;;;;;4.82;4.43;;;13.70;94.10;;;;;;5032069;28;20290;-75
2023/02/12 08:43:32;;;;;;;4.97;4.30;;;13.90;94.00;;;;;;5036540;28;20215;-75
2023/02/12 08:46:14;;;;;;;5.28;4.78;;;14.00;93.90;;;;;;5034719;28;20315;-74
2023/02/12 08:48:42;;;;;;;5.00;4.50;;;14.00;93.10;;;;;;5031787;28;20253;-75
2023/02/12 08:51:12;;;;;;;4.20;3.72;;;13.90;92.90;;;;;;5029761;28;20287;-75
2023/02/12 08:53:42;;;;;;;4.80;3.65;;;13.90;93.10;;;;;;5031838;28;20231;-74
2023/02/12 08:56:10;;;;;;;4.10;3.70;;;14.10;92.80;;;;;;5036398;28;20673;-75
2023/02/12 08:58:38;;;;;;;4.93;3.90;;;14.20;92.10;;;;;;5029712;28;20262;-74
2023/02/12 09:01:10;;;;;;;4.28;3.97;;;14.30;92.10;;;;;;5031927;28;20631;-74
2023/02/12 09:03:37;;;;;;;4.55;4.15;;;14.50;92.30;;;;;;5035221;28;20305;-74
2023/02/12 09:06:06;;;;;;;4.45;4.05;;;14.80;92.30;;;;;;5031108;28;20258;-75
2023/02/12 09:08:33;;;;;;;4.18;3.88;;;15.10;91.50;;;;;;5030642;28;20298;-74
2023/02/12 09:11:00;;;;;;;4.88;4.40;;;15.20;90.90;;;;;;5034439;28;20318;-74
2023/02/12 09:13:27;;;;;;;4.13;3.83;;;15.30;90.80;;;;;;5036228;28;20262;-75
2023/02/12 09:15:54;;;;;;;4.40;3.88;;;15.60;90.80;;;;;;5032878;28;20661;-74
2023/02/12 09:18:23;;;;;;;4.15;3.85;;;15.80;90.90;;;;;;5029498;28;20677;-75
2023/02/12 09:20:50;;;;;;;3.95;3.50;;;16.20;90.50;;;;;;5040142;28;20278;-75
2023/02/12 09:23:17;;;;;;;3.85;3.45;;;16.50;90.20;;;;;;5032295;28;20278;-75
2023/02/12 09:25:45;;;;;;;3.63;3.33;;;16.80;90.20;;;;;;5035557;28;20302;-75
2023/02/12 09:28:14;;;;;;;4.80;4.32;;;17.00;89.20;;;;;;5036614;28;20286;-75
2023/02/12 09:30:41;;;;;;;4.78;4.35;;;17.00;88.20;;;;;;5018385;28;20195;-75
2023/02/12 09:33:10;;;;;;;7.43;4.57;;;17.10;88.10;;;;;;5029549;28;20286;-75
2023/02/12 09:35:40;;;;;;;5.22;4.72;;;16.90;86.40;;;;;;5034624;28;20297;-74
2023/02/12 09:38:08;;;;;;;4.82;4.43;;;16.90;86.40;;;;;;5038501;28;20239;-76
2023/02/12 09:40:43;;;;;;;6.35;5.22;;;16.40;85.80;;;;;;5032034;28;20238;-74
2023/02/12 09:43:20;;;;;;;4.88;4.45;;;15.90;86.70;;;;;;5032592;28;20195;-76
2023/02/12 09:45:55;;;;;;;4.63;3.90;;;15.50;87.50;;;;;;5033097;28;20303;-75
2023/02/12 09:48:43;;;;;;;4.47;4.07;;;15.70;88.40;;;;;;5030962;28;20282;-76
2023/02/12 09:51:12;;;;;;;4.90;4.50;;;15.90;88.50;;;;;;5030924;28;20242;-76
2023/02/12 09:53:44;;;;;;;4.78;4.28;;;16.40;87.80;;;;;;5034961;28;20648;-77
2023/02/12 09:56:17;;;;;;;4.25;3.85;;;16.00;84.40;;;;;;5036660;28;20719;-76
2023/02/12 09:58:47;;;;;;;6.28;4.38;;;16.00;87.00;;;;;;5027273;28;20219;-75
2023/02/12 10:01:16;;;;;;;5.35;4.60;;;16.20;86.50;;;;;;5030224;28;20205;-76
2023/02/12 10:03:45;;;;;;;5.05;4.55;;;16.40;86.20;;;;;;5031217;28;20311;-75
2023/02/12 10:06:16;;;;;;;4.38;3.97;;;16.50;85.00;;;;;;5028770;28;20254;-76
2023/02/12 10:09:23;;;;;;;5.65;4.40;;;16.60;85.50;;;;;;5030668;28;20266;-76
2023/02/12 10:11:55;;;;;;;4.82;4.43;;;17.00;84.30;;;;;;5017525;28;20246;-76
2023/02/12 10:14:40;;;;;;;4.88;4.32;;;17.00;83.90;;;;;;5027552;28;20226;-76
2023/02/12 10:17:17;;;;;;;4.78;4.38;;;17.10;84.10;;;;;;5030638;28;20286;-76
2023/02/12 10:20:08;;;;;;;4.60;4.10;;;17.40;84.20;;;;;;5026180;28;20267;-76
2023/02/12 10:22:45;;;;;;;4.90;4.40;;;17.80;83.60;;;;;;5025980;28;20286;-75
2023/02/12 10:25:23;;;;;;;5.28;4.78;;;18.20;82.00;;;;;;5029635;28;20336;-76
2023/02/12 10:27:53;;;;;;;5.00;4.50;;;18.30;79.80;;;;;;5027670;28;20274;-76
2023/02/12 10:30:24;;;;;;;5.43;4.93;;;18.10;80.30;;;;;;5034791;28;20330;-76
2023/02/12 10:32:54;;;;;;;4.00;3.70;;;18.10;79.40;;;;;;5033034;28;20222;-75
2023/02/12 10:35:23;;;;;;;4.68;4.28;;;18.10;79.60;;;;;;5032047;28;20290;-76
2023/02/12 10:37:56;;;;;;;4.78;4.13;;;18.00;79.50;;;;;;5029138;28;20199;-76
2023/02/12 10:40:28;;;;;;;4.05;3.65;;;17.60;80.00;;;;;;5031208;28;20314;-76
2023/02/12 10:42:57;;;;;;;3.90;3.47;;;17.20;80.60;;;;;;5034646;28;20246;-76
2023/02/12 10:45:29;;;;;;;4.38;3.97;;;17.00;81.30;;;;;;5034069;28;20617;-76
2023/02/12 10:48:05;;;;;;;4.47;4.10;;;16.50;82.50;;;;;;5032429;28;20716;-77
2023/02/12 10:50:42;;;;;;;4.38;3.97;;;16.30;84.80;;;;;;5038486;28;20655;-77
2023/02/12 10:53:18;;;;;;;4.60;4.18;;;15.80;84.40;;;;;;5030131;28;20231;-76
2023/02/12 10:55:45;;;;;;;4.28;3.88;;;15.40;85.60;;;;;;5027875;28;20234;-78
2023/02/12 10:58:21;;;;;;;4.57;3.65;;;15.20;85.90;;;;;;5036461;28;22026;-74
2023/02/12 11:00:57;;;;;;;3.65;3.35;;;15.00;86.00;;;;;;5028047;28;20230;-73
2023/02/12 11:03:29;;;;;;;3.53;3.22;;;15.20;86.30;;;;;;5023315;28;20207;-76
2023/02/12 11:05:56;;;;;;;3.58;3.28;;;15.60;85.90;;;;;;5027050;28;20299;-75
2023/02/12 11:08:34;;;;;;;3.58;3.28;;;16.10;85.30;;;;;;5032659;28;20648;-76
2023/02/12 11:11:08;;;;;;;4.13;3.42;;;16.40;84.50;;;;;;5029954;28;20208;-76
2023/02/12 11:13:36;;;;;;;4.03;3.38;;;16.90;84.50;;;;;;5029855;28;20305;-77
2023/02/12 11:16:04;;;;;;;3.63;3.33;;;17.10;82.50;;;;;;5021995;28;20332;-76
2023/02/12 11:18:32;;;;;;;4.65;3.90;;;17.10;82.90;;;;;;5020162;28;20223;-74
2023/02/12 11:21:02;;;;;;;4.45;3.88;;;17.30;83.00;;;;;;5025174;28;20287;-73
2023/02/12 11:23:33;;;;;;;5.45;3.88;;;17.30;82.00;;;;;;5023420;28;20313;-74
2023/02/12 11:26:03;;;;;;;4.50;4.10;;;17.30;82.20;;;;;;5020517;28;20298;-74
2023/02/12 11:28:32;;;;;;;7.35;3.63;;;17.60;82.10;;;;;;5020678;28;20341;-74
2023/02/12 11:31:01;;;;;;;6.28;4.20;;;17.90;81.10;;;;;;5025833;28;20278;-74
2023/02/12 11:33:31;;;;;;;3.45;3.13;;;18.00;80.10;;;;;;5026946;28;20223;-74
2023/02/12 11:36:02;;;;;;;3.90;3.50;;;17.90;81.10;;;;;;5041136;28;20258;-74
2023/02/12 11:38:36;;;;;;;3.75;3.38;;;17.70;79.60;;;;;;5031396;28;20247;-74
2023/02/12 11:41:08;;;;;;;3.13;2.83;;;17.70;80.90;;;;;;5030297;28;20293;-74
2023/02/12 11:43:39;;;;;;;3.90;3.53;;;17.80;78.80;;;;;;5031116;28;20239;-74
2023/02/12 11:46:08;;;;;;;4.20;3.10;;;17.70;78.80;;;;;;5027285;28;20250;-74
2023/02/12 11:48:39;;;;;;;3.42;3.13;;;17.70;79.40;;;;;;5030715;28;20250;-74
2023/02/12 11:51:09;;;;;;;2.95;2.72;;;17.60;78.60;;;;;;5027488;28;20286;-74
2023/02/12 11:53:43;;;;;;;3.78;3.10;;;17.50;78.20;;;;;;5028788;28;20683;-74
2023/02/12 11:56:13;;;;;;;3.13;2.83;;;17.20;79.50;;;;;;5033201;28;20308;-74
2023/02/12 11:58:41;;;;;;;2.95;2.75;;;17.30;80.50;;;;;;5032419;28;20218;-75
2023/02/12 12:01:18;;;;;;;3.42;3.13;;;17.50;80.10;;;;;;5027801;28;20492;-75
2023/02/12 12:03:54;;;;;;;4.18;3.10;;;17.60;79.00;;;;;;5031352;28;20234;-75
2023/02/12 12:06:32;;;;;;;2.95;2.67;;;17.70;80.30;;;;;;5031924;28;20216;-74
2023/02/12 12:09:06;;;;;;;3.28;2.80;;;17.90;79.00;;;;;;5029331;28;20302;-74
2023/02/12 12:11:41;;;;;;;3.10;2.80;;;17.90;78.30;;;;;;5028957;28;20227;-74
2023/02/12 12:14:16;;;;;;;2.90;2.50;;;17.80;79.00;;;;;;5026309;28;20250;-74
2023/02/12 12:19:54;;;;;;;2.70;2.50;;;18.20;78.90;;;;;;5037939;28;20356;-74
2023/02/12 12:22:33;;;;;;;3.17;2.88;;;18.30;77.10;;;;;;5039805;28;20210;-74
2023/02/12 12:25:18;;;;;;;2.63;2.42;;;18.70;77.80;;;;;;5039101;28;20242;-74
2023/02/12 12:28:08;;;;;;;2.90;2.40;;;19.00;76.80;;;;;;5030817;28;20649;-74
2023/02/12 12:31:02;;;;;;;2.78;2.47;;;18.80;74.70;;;;;;5033756;28;20301;-74
2023/02/12 12:33:49;;;;;;;2.10;2.00;;;18.60;72.40;;;;;;5036368;28;20258;-74
2023/02/12 12:36:47;;;;;;;1.95;1.80;;;18.40;73.70;;;;;;5039167;28;20294;-74
2023/02/12 12:39:23;;;;;;;2.85;2.13;;;18.40;74.10;;;;;;5018385;28;20242;-74
2023/02/12 12:42:17;;;;;;;2.60;2.40;;;18.60;75.10;;;;;;5041688;28;20239;-74
2023/02/12 12:44:58;;;;;;;3.10;2.40;;;18.50;73.90;;;;;;5037081;28;20215;-74
2023/02/12 12:47:30;;;;;;;2.17;2.03;;;18.70;75.70;;;;;;5021324;28;20287;-74
2023/02/12 12:50:08;;;;;;;2.38;2.17;;;18.90;75.80;;;;;;5034029;28;20318;-74
2023/02/12 12:53:02;;;;;;;4.18;2.70;;;19.10;73.10;;;;;;5042677;28;20242;-74
2023/02/12 12:55:51;;;;;;;3.53;2.40;;;18.90;72.80;;;;;;5036827;28;20274;-74
2023/02/12 12:58:33;;;;;;;2.10;1.95;;;18.70;72.90;;;;;;5034935;28;20227;-75
2023/02/12 13:01:16;;;;;;;2.20;2.00;;;18.90;74.30;;;;;;5040624;28;20198;-74
2023/02/12 13:04:19;;;;;;;3.95;2.00;;;19.00;74.00;;;;;;5017021;28;20570;-74
2023/02/12 13:07:07;;;;;;;2.00;1.90;;;19.00;71.60;;;;;;5025411;28;20231;-74
2023/02/12 13:09:48;;;;;;;2.22;2.03;;;18.70;72.50;;;;;;5035466;28;20277;-74
2023/02/12 13:12:39;;;;;;;2.42;1.80;;;18.50;74.00;;;;;;5033092;28;20286;-74
2023/02/12 13:15:17;;;;;;;2.00;1.90;;;18.30;72.30;;;;;;5038590;28;20310;-74
2023/02/12 13:17:51;;;;;;;2.50;1.95;;;18.40;73.60;;;;;;5040444;28;20337;-74
2023/02/12 13:20:25;;;;;;;2.00;1.80;;;18.50;73.70;;;;;;5035689;28;20251;-75